createdAt,value
2018-08-25T00:01:34.050Z,16.30
2018-08-25T00:04:02.814Z,16.30
2018-08-25T00:06:31.297Z,16.30
2018-08-25T00:08:59.768Z,16.20
2018-08-25T00:11:28.385Z,16.20
2018-08-25T00:13:57.068Z,16.20
2018-08-25T00:16:25.487Z,16.20
2018-08-25T00:18:53.955Z,16.20
2018-08-25T00:21:22.401Z,16.20
2018-08-25T00:23:50.814Z,16.20
2018-08-25T00:26:19.271Z,16.20
2018-08-25T00:28:47.825Z,16.20
2018-08-25T00:31:23.678Z,16.10
2018-08-25T00:33:53.323Z,16.20
2018-08-25T00:36:22.299Z,16.10
2018-08-25T00:38:50.780Z,16.10
2018-08-25T00:41:19.448Z,16.10
2018-08-25T00:43:47.941Z,16.10
2018-08-25T00:46:16.921Z,16.10
2018-08-25T00:48:45.581Z,16.10
2018-08-25T00:51:14.313Z,16.10
2018-08-25T00:53:42.780Z,16.20
2018-08-25T00:56:11.393Z,16.20
2018-08-25T00:58:39.890Z,16.20
2018-08-25T01:01:08.415Z,16.20
2018-08-25T01:03:36.935Z,16.20
2018-08-25T01:06:05.501Z,16.20
2018-08-25T01:08:33.977Z,16.20
2018-08-25T01:11:02.425Z,16.20
2018-08-25T01:13:31.023Z,16.20
2018-08-25T01:15:59.743Z,16.20
2018-08-25T01:18:28.205Z,16.20
2018-08-25T01:20:56.692Z,16.20
2018-08-25T01:23:25.159Z,16.20
2018-08-25T01:25:53.777Z,16.20
2018-08-25T01:28:22.307Z,16.20
2018-08-25T01:30:50.845Z,16.20
2018-08-25T01:33:19.341Z,16.20
2018-08-25T01:35:47.787Z,16.20
2018-08-25T01:38:16.408Z,16.20
2018-08-25T01:40:44.817Z,16.20
2018-08-25T01:43:13.349Z,16.20
2018-08-25T01:45:41.854Z,16.20
2018-08-25T01:48:10.553Z,16.10
2018-08-25T01:50:39.005Z,16.10
2018-08-25T01:53:07.689Z,16.10
2018-08-25T01:55:37.593Z,16.10
2018-08-25T01:58:07.233Z,16.10
2018-08-25T02:00:35.764Z,16.10
2018-08-25T02:03:04.184Z,16.10
2018-08-25T02:05:32.720Z,16.10
2018-08-25T02:08:03.697Z,16.10
2018-08-25T02:10:32.198Z,16.10
2018-08-25T02:13:00.885Z,16.10
2018-08-25T02:15:29.450Z,16.10
2018-08-25T02:17:57.872Z,16.10
2018-08-25T02:20:26.645Z,16.10
2018-08-25T02:22:55.239Z,16.10
2018-08-25T02:25:23.879Z,16.20
2018-08-25T02:27:52.354Z,16.20
2018-08-25T02:30:20.812Z,16.20
2018-08-25T02:32:49.428Z,16.20
2018-08-25T02:35:18.280Z,16.20
2018-08-25T02:37:46.962Z,16.20
2018-08-25T02:40:15.585Z,16.20
2018-08-25T02:42:44.418Z,16.20
2018-08-25T02:45:12.937Z,16.20
2018-08-25T02:47:41.387Z,16.20
2018-08-25T02:50:10.028Z,16.20
2018-08-25T02:52:38.679Z,16.20
2018-08-25T02:55:07.235Z,16.20
2018-08-25T02:57:35.963Z,16.30
2018-08-25T03:00:04.556Z,16.30
2018-08-25T03:02:33.068Z,16.20
2018-08-25T03:05:01.589Z,16.20
2018-08-25T03:07:30.284Z,16.20
2018-08-25T03:09:58.737Z,16.20
2018-08-25T03:12:27.300Z,16.10
2018-08-25T03:14:56.081Z,16.00
2018-08-25T03:17:24.862Z,15.80
2018-08-25T03:19:53.353Z,15.70
2018-08-25T03:22:22.248Z,15.30
2018-08-25T03:24:50.822Z,15.10
2018-08-25T03:27:26.126Z,14.90
2018-08-25T03:29:55.017Z,14.70
2018-08-25T03:32:23.966Z,14.60
2018-08-25T03:34:52.716Z,14.50
2018-08-25T03:37:21.412Z,14.40
2018-08-25T03:39:49.970Z,14.30
2018-08-25T03:42:18.970Z,14.30
2018-08-25T03:44:47.725Z,14.20
2018-08-25T03:47:16.239Z,14.10
2018-08-25T03:49:44.731Z,14.10
2018-08-25T03:52:13.473Z,14.00
2018-08-25T03:54:42.171Z,14.00
2018-08-25T03:57:10.925Z,14.00
2018-08-25T03:59:39.440Z,14.00
2018-08-25T04:02:07.890Z,14.00
2018-08-25T04:04:36.469Z,13.90
2018-08-25T04:07:05.233Z,13.80
2018-08-25T04:09:33.933Z,13.60
2018-08-25T04:12:02.928Z,13.50
2018-08-25T04:14:32.008Z,13.40
2018-08-25T04:17:00.784Z,13.30
2018-08-25T04:19:29.286Z,13.20
2018-08-25T04:21:57.962Z,13.20
2018-08-25T04:24:26.704Z,13.10
2018-08-25T04:26:55.317Z,13.00
2018-08-25T04:29:23.776Z,13.00
2018-08-25T04:31:52.371Z,12.90
2018-08-25T04:34:21.367Z,12.90
2018-08-25T04:36:49.993Z,12.80
2018-08-25T04:39:18.998Z,12.80
2018-08-25T04:41:47.529Z,12.80
2018-08-25T04:44:15.978Z,12.80
2018-08-25T04:46:44.475Z,12.90
2018-08-25T04:49:13.250Z,12.80
2018-08-25T04:51:41.779Z,12.80
2018-08-25T04:54:11.620Z,12.80
2018-08-25T04:56:40.713Z,12.80
2018-08-25T04:59:09.360Z,12.80
2018-08-25T05:01:37.947Z,12.80
2018-08-25T05:04:06.891Z,12.80
2018-08-25T05:06:35.422Z,12.80
2018-08-25T05:09:04.863Z,12.80
2018-08-25T05:11:33.475Z,12.80
2018-08-25T05:14:02.098Z,12.70
2018-08-25T05:16:30.556Z,12.70
2018-08-25T05:18:59.061Z,12.70
2018-08-25T05:21:28.745Z,12.70
2018-08-25T05:23:57.146Z,12.70
2018-08-25T05:26:26.023Z,12.80
2018-08-25T05:28:54.594Z,12.80
2018-08-25T05:31:23.064Z,12.80
2018-08-25T05:33:51.710Z,12.80
2018-08-25T05:36:20.225Z,12.80
2018-08-25T05:38:48.813Z,12.80
2018-08-25T05:41:17.238Z,12.90
2018-08-25T05:43:45.864Z,13.00
2018-08-25T05:46:14.430Z,13.30
2018-08-25T05:48:43.036Z,13.60
2018-08-25T05:51:11.745Z,13.90
2018-08-25T05:53:40.165Z,14.10
2018-08-25T05:56:08.883Z,14.20
2018-08-25T05:58:37.387Z,14.30
2018-08-25T06:01:06.046Z,14.40
2018-08-25T06:03:34.629Z,14.40
2018-08-25T06:06:03.105Z,14.40
2018-08-25T06:08:32.358Z,14.30
2018-08-25T06:11:00.922Z,14.40
2018-08-25T06:13:29.461Z,14.60
2018-08-25T06:15:57.927Z,14.90
2018-08-25T06:18:26.460Z,15.00
2018-08-25T06:20:55.098Z,15.10
2018-08-25T06:23:23.570Z,15.20
2018-08-25T06:25:52.150Z,15.30
2018-08-25T06:28:20.909Z,15.40
2018-08-25T06:30:49.423Z,15.60
2018-08-25T06:33:17.976Z,15.80
2018-08-25T06:35:46.740Z,15.80
2018-08-25T06:38:15.360Z,15.80
2018-08-25T06:40:43.953Z,15.90
2018-08-25T06:43:12.612Z,15.90
2018-08-25T06:45:41.200Z,15.80
2018-08-25T06:48:09.891Z,15.60
2018-08-25T06:50:38.458Z,15.50
2018-08-25T06:53:07.042Z,15.50
2018-08-25T06:55:36.603Z,15.90
2018-08-25T06:58:05.490Z,16.20
2018-08-25T07:00:34.169Z,16.50
2018-08-25T07:03:02.606Z,17.20
2018-08-25T07:05:31.089Z,17.80
2018-08-25T07:07:59.513Z,18.50
2018-08-25T07:10:28.070Z,19.50
2018-08-25T07:12:56.889Z,20.80
2018-08-25T07:15:25.481Z,21.80
2018-08-25T07:17:53.988Z,22.70
2018-08-25T07:20:22.620Z,22.80
2018-08-25T07:22:51.120Z,22.90
2018-08-25T07:25:19.817Z,23.30
2018-08-25T07:27:48.313Z,23.10
2018-08-25T07:30:17.024Z,22.40
2018-08-25T07:32:45.507Z,21.90
2018-08-25T07:35:14.274Z,21.20
2018-08-25T07:37:43.104Z,20.40
2018-08-25T07:40:11.866Z,19.90
2018-08-25T07:42:40.887Z,19.60
2018-08-25T07:45:10.173Z,19.10
2018-08-25T07:47:38.873Z,18.60
2018-08-25T07:50:08.534Z,18.50
2018-08-25T07:52:37.101Z,18.90
2018-08-25T07:55:06.050Z,19.30
2018-08-25T07:57:34.606Z,19.50
2018-08-25T08:00:03.207Z,19.40
2018-08-25T08:02:31.758Z,19.40
2018-08-25T08:05:00.539Z,20.00
2018-08-25T08:07:29.070Z,20.70
2018-08-25T08:09:57.740Z,21.20
2018-08-25T08:12:26.586Z,21.40
2018-08-25T08:14:55.156Z,21.40
2018-08-25T08:17:23.804Z,21.40
2018-08-25T08:19:52.257Z,21.20
2018-08-25T08:22:21.011Z,21.10
2018-08-25T08:24:49.686Z,20.90
2018-08-25T08:27:18.143Z,20.80
2018-08-25T08:29:46.570Z,20.80
2018-08-25T08:32:15.129Z,20.70
2018-08-25T08:34:43.663Z,20.70
2018-08-25T08:37:12.267Z,21.20
2018-08-25T08:39:40.916Z,21.70
2018-08-25T08:42:09.576Z,22.40
2018-08-25T08:44:38.018Z,23.40
2018-08-25T08:47:06.842Z,24.50
2018-08-25T08:49:46.453Z,25.40
2018-08-25T08:52:04.081Z,25.90
2018-08-25T08:54:32.813Z,26.30
2018-08-25T08:57:01.387Z,26.60
2018-08-25T08:59:29.850Z,27.50
2018-08-25T09:01:58.341Z,28.00
2018-08-25T09:04:26.841Z,28.40
2018-08-25T09:06:55.423Z,28.20
2018-08-25T09:09:24.259Z,28.00
2018-08-25T09:11:52.771Z,27.30
2018-08-25T09:14:21.453Z,27.00
2018-08-25T09:29:54.631Z,27.40
2018-08-25T09:32:23.201Z,27.70
2018-08-25T09:34:51.890Z,27.60
2018-08-25T09:37:20.588Z,28.60
2018-08-25T09:39:49.141Z,29.10
2018-08-25T09:42:18.075Z,28.60
2018-08-25T09:44:46.874Z,27.90
2018-08-25T09:47:15.567Z,27.40
2018-08-25T09:49:44.067Z,26.80
2018-08-25T09:52:12.709Z,27.20
2018-08-25T09:54:41.611Z,27.80
2018-08-25T09:57:10.235Z,28.50
2018-08-25T09:59:38.862Z,28.90
2018-08-25T10:02:08.310Z,28.60
2018-08-25T10:04:37.348Z,27.80
2018-08-25T10:07:06.340Z,27.60
2018-08-25T10:09:35.198Z,27.90
2018-08-25T10:12:04.009Z,26.40
2018-08-25T10:14:32.529Z,25.50
2018-08-25T10:17:01.219Z,25.80
2018-08-25T10:19:29.929Z,25.90
2018-08-25T10:21:58.491Z,25.50
2018-08-25T10:24:26.987Z,25.00
2018-08-25T10:26:55.518Z,25.50
2018-08-25T10:29:24.053Z,26.00
2018-08-25T10:31:52.492Z,26.40
2018-08-25T10:34:20.988Z,27.40
2018-08-25T10:36:49.697Z,28.10
2018-08-25T10:39:18.460Z,29.00
2018-08-25T10:41:47.457Z,29.90
2018-08-25T10:44:15.977Z,30.50
2018-08-25T10:46:44.509Z,30.70
2018-08-25T10:49:13.408Z,30.50
2018-08-25T10:51:42.155Z,30.30
2018-08-25T10:54:10.692Z,30.00
2018-08-25T10:56:39.438Z,29.20
2018-08-25T10:59:07.872Z,28.70
2018-08-25T11:01:36.531Z,27.80
2018-08-25T11:04:05.561Z,27.70
2018-08-25T11:06:34.324Z,27.10
2018-08-25T11:09:03.200Z,26.50
2018-08-25T11:11:31.730Z,25.80
2018-08-25T11:14:00.613Z,25.20
2018-08-25T11:16:29.709Z,24.40
2018-08-25T11:18:58.276Z,23.50
2018-08-25T11:21:26.821Z,23.50
2018-08-25T11:23:55.302Z,23.50
2018-08-25T11:26:23.883Z,23.60
2018-08-25T11:28:52.688Z,23.70
2018-08-25T11:31:21.409Z,23.50
2018-08-25T11:33:50.038Z,23.50
2018-08-25T11:36:18.730Z,23.60
2018-08-25T11:38:47.373Z,23.80
2018-08-25T11:41:15.979Z,23.80
2018-08-25T11:43:44.864Z,23.60
2018-08-25T11:46:13.310Z,23.50
2018-08-25T11:48:41.871Z,23.40
2018-08-25T11:51:10.386Z,23.30
2018-08-25T11:53:38.967Z,23.40
2018-08-25T11:56:07.650Z,23.40
2018-08-25T11:58:36.104Z,23.60
2018-08-25T12:01:04.685Z,23.70
2018-08-25T12:03:33.512Z,23.50
2018-08-25T12:06:01.914Z,23.40
2018-08-25T12:08:30.560Z,23.40
2018-08-25T12:10:59.587Z,23.00
2018-08-25T12:13:28.237Z,22.80
2018-08-25T12:15:56.804Z,22.70
2018-08-25T12:18:25.498Z,23.00
2018-08-25T12:20:54.274Z,23.10
2018-08-25T12:23:23.028Z,23.30
2018-08-25T12:25:51.776Z,23.40
2018-08-25T12:28:20.388Z,23.60
2018-08-25T12:30:48.979Z,23.70
2018-08-25T12:33:17.678Z,23.60
2018-08-25T12:35:46.466Z,23.30
2018-08-25T12:38:15.058Z,22.90
2018-08-25T12:40:43.525Z,22.30
2018-08-25T12:43:12.244Z,22.10
2018-08-25T12:45:40.841Z,22.00
2018-08-25T12:48:09.407Z,21.90
2018-08-25T12:50:38.194Z,21.80
2018-08-25T12:53:06.694Z,22.00
2018-08-25T12:55:35.123Z,22.20
2018-08-25T12:58:03.742Z,22.50
2018-08-25T13:00:32.430Z,22.80
2018-08-25T13:03:01.006Z,23.20
2018-08-25T13:05:29.482Z,23.20
2018-08-25T13:07:58.094Z,23.00
2018-08-25T13:10:27.038Z,22.90
2018-08-25T13:12:55.737Z,23.00
2018-08-25T13:15:24.209Z,23.20
2018-08-25T13:17:52.872Z,23.40
2018-08-25T13:20:21.515Z,23.60
2018-08-25T13:22:50.063Z,23.60
2018-08-25T13:25:18.552Z,23.70
2018-08-25T13:27:47.060Z,23.50
2018-08-25T13:30:15.526Z,23.40
2018-08-25T13:32:44.108Z,23.40
2018-08-25T13:35:12.740Z,23.20
2018-08-25T13:37:41.698Z,23.00
2018-08-25T13:40:10.387Z,22.70
2018-08-25T13:42:38.828Z,22.00
2018-08-25T13:45:07.348Z,21.10
2018-08-25T13:47:35.770Z,20.30
2018-08-25T13:50:04.563Z,19.80
2018-08-25T13:52:33.268Z,19.60
2018-08-25T13:55:01.738Z,19.50
2018-08-25T13:57:30.220Z,19.40
2018-08-25T13:59:58.719Z,19.30
2018-08-25T14:02:27.358Z,19.10
2018-08-25T14:04:55.830Z,19.00
2018-08-25T14:07:24.379Z,18.90
2018-08-25T14:09:52.839Z,18.90
2018-08-25T14:12:21.291Z,19.10
2018-08-25T14:14:49.768Z,19.30
2018-08-25T14:17:18.205Z,19.60
2018-08-25T14:19:46.737Z,19.80
2018-08-25T14:22:15.344Z,19.80
2018-08-25T14:24:43.809Z,19.90
2018-08-25T14:27:12.280Z,19.90
2018-08-25T14:29:40.757Z,19.90
2018-08-25T14:32:09.205Z,19.70
2018-08-25T14:34:37.764Z,19.70
2018-08-25T14:37:06.273Z,19.70
2018-08-25T14:39:34.808Z,19.60
2018-08-25T14:42:03.348Z,19.60
2018-08-25T14:44:31.781Z,19.60
2018-08-25T14:47:00.517Z,19.60
2018-08-25T14:49:29.064Z,19.50
2018-08-25T14:51:57.557Z,19.40
2018-08-25T14:54:25.995Z,19.40
2018-08-25T14:56:54.459Z,19.20
2018-08-25T14:59:23.141Z,19.10
2018-08-25T15:01:51.735Z,19.10
2018-08-25T15:04:20.269Z,19.00
2018-08-25T15:06:48.805Z,19.00
2018-08-25T15:09:17.249Z,19.00
2018-08-25T15:11:46.256Z,18.90
2018-08-25T15:14:14.720Z,18.80
2018-08-25T15:16:43.188Z,18.60
2018-08-25T15:19:11.631Z,18.20
2018-08-25T15:21:40.210Z,18.00
2018-08-25T15:24:08.761Z,17.80
2018-08-25T15:26:37.294Z,17.50
2018-08-25T15:29:05.837Z,17.30
2018-08-25T15:31:34.298Z,17.20
2018-08-25T15:34:02.892Z,17.30
2018-08-25T15:36:31.317Z,17.60
2018-08-25T15:38:59.797Z,18.00
2018-08-25T15:41:28.293Z,18.30
2018-08-25T15:43:56.707Z,18.50
2018-08-25T15:46:25.158Z,18.60
2018-08-25T15:48:53.617Z,18.60
2018-08-25T15:51:22.128Z,18.60
2018-08-25T15:53:50.624Z,18.60
2018-08-25T15:56:19.921Z,18.50
2018-08-25T15:58:48.484Z,18.40
2018-08-25T16:01:16.932Z,18.30
2018-08-25T16:03:45.447Z,18.30
2018-08-25T16:06:13.915Z,18.30
2018-08-25T16:08:42.520Z,18.30
2018-08-25T16:11:11.025Z,18.20
2018-08-25T16:13:39.767Z,18.20
2018-08-25T16:16:08.230Z,18.10
2018-08-25T16:18:36.975Z,18.10
2018-08-25T16:21:05.768Z,18.10
2018-08-25T16:23:34.408Z,18.10
2018-08-25T16:26:03.151Z,18.10
2018-08-25T16:28:31.624Z,17.90
2018-08-25T16:31:00.074Z,17.80
2018-08-25T16:33:28.800Z,17.70
2018-08-25T16:35:57.335Z,17.70
2018-08-25T16:38:25.904Z,17.60
2018-08-25T16:40:54.371Z,17.60
2018-08-25T16:43:22.866Z,17.70
2018-08-25T16:45:51.291Z,17.80
2018-08-25T16:48:19.772Z,17.90
2018-08-25T16:50:48.225Z,17.90
2018-08-25T16:53:16.821Z,18.00
2018-08-25T16:55:45.435Z,18.00
2018-08-25T16:58:14.063Z,18.10
2018-08-25T17:00:42.537Z,18.00
2018-08-25T17:03:11.001Z,18.10
2018-08-25T17:05:39.493Z,18.00
2018-08-25T17:08:08.000Z,18.00
2018-08-25T17:10:36.462Z,18.10
2018-08-25T17:13:05.048Z,18.20
2018-08-25T17:15:33.503Z,18.20
2018-08-25T17:18:01.937Z,18.10
2018-08-25T17:20:30.435Z,18.10
2018-08-25T17:22:58.945Z,18.00
2018-08-25T17:25:27.386Z,18.10
2018-08-25T17:27:55.880Z,18.20
2018-08-25T17:30:24.321Z,18.20
2018-08-25T17:32:52.801Z,18.10
2018-08-25T17:35:21.477Z,17.90
2018-08-25T17:37:49.934Z,17.80
2018-08-25T17:40:18.611Z,17.60
2018-08-25T17:42:47.157Z,17.60
2018-08-25T17:45:15.668Z,17.50
2018-08-25T17:47:44.269Z,17.30
2018-08-25T17:50:12.775Z,17.20
2018-08-25T17:52:41.267Z,17.20
2018-08-25T17:55:09.810Z,17.20
2018-08-25T17:57:38.421Z,17.20
2018-08-25T18:00:07.086Z,17.10
2018-08-25T18:02:35.581Z,17.00
2018-08-25T18:05:04.264Z,17.00
2018-08-25T18:07:32.894Z,16.90
2018-08-25T18:10:01.329Z,16.80
2018-08-25T18:12:29.847Z,16.70
2018-08-25T18:14:58.402Z,16.60
2018-08-25T18:17:26.917Z,16.50
2018-08-25T18:19:55.354Z,16.40
2018-08-25T18:22:23.939Z,16.30
2018-08-25T18:24:52.764Z,16.20
2018-08-25T18:27:21.692Z,16.10
2018-08-25T18:29:50.276Z,16.00
2018-08-25T18:32:19.228Z,15.90
2018-08-25T18:34:48.113Z,15.80
2018-08-25T18:37:17.311Z,15.80
2018-08-25T18:39:46.386Z,15.60
2018-08-25T18:42:14.888Z,15.50
2018-08-25T18:44:43.309Z,15.50
2018-08-25T18:47:12.362Z,15.40
2018-08-25T18:49:41.001Z,15.40
2018-08-25T18:52:09.464Z,15.40
2018-08-25T18:54:38.318Z,15.40
2018-08-25T18:57:07.399Z,15.30
2018-08-25T18:59:35.899Z,15.30
2018-08-25T19:02:04.921Z,15.20
2018-08-25T19:04:33.436Z,15.20
2018-08-25T19:07:02.241Z,15.10
2018-08-25T19:09:31.028Z,15.00
2018-08-25T19:11:59.669Z,14.90
2018-08-25T19:14:28.598Z,14.80
2018-08-25T19:16:57.515Z,14.70
2018-08-25T19:19:26.413Z,14.60
2018-08-25T19:21:55.372Z,14.50
2018-08-25T19:24:24.461Z,14.50
2018-08-25T19:26:53.252Z,14.40
2018-08-25T19:29:22.141Z,14.30
2018-08-25T19:31:50.967Z,14.30
2018-08-25T19:34:19.714Z,14.30
2018-08-25T19:36:48.691Z,14.20
2018-08-25T19:39:18.011Z,14.30
2018-08-25T19:41:46.904Z,14.30
2018-08-25T19:44:15.682Z,14.20
2018-08-25T19:46:44.576Z,14.10
2018-08-25T19:49:13.432Z,14.00
2018-08-25T19:51:45.427Z,13.90
2018-08-25T19:54:14.411Z,13.80
2018-08-25T19:56:43.090Z,13.70
2018-08-25T19:59:11.824Z,13.70
2018-08-25T20:01:40.345Z,13.60
2018-08-25T20:04:08.845Z,13.60
2018-08-25T20:06:37.337Z,13.50
2018-08-25T20:09:07.297Z,13.50
2018-08-25T20:11:36.224Z,13.40
2018-08-25T20:14:04.961Z,13.40
2018-08-25T20:16:33.801Z,13.40
2018-08-25T20:19:02.741Z,13.30
2018-08-25T20:21:31.371Z,13.30
2018-08-25T20:24:00.363Z,13.30
2018-08-25T20:26:29.464Z,13.30
2018-08-25T20:28:58.346Z,13.20
2018-08-25T20:31:26.803Z,13.20
2018-08-25T20:33:55.308Z,13.20
2018-08-25T20:36:23.793Z,13.20
2018-08-25T20:38:52.572Z,13.20
2018-08-25T20:41:21.272Z,13.20
2018-08-25T20:43:50.159Z,13.10
2018-08-25T20:46:18.779Z,13.10
2018-08-25T20:48:47.361Z,13.00
2018-08-25T20:51:15.877Z,12.90
2018-08-25T20:53:44.313Z,12.90
2018-08-25T20:56:12.789Z,12.80
2018-08-25T20:58:41.315Z,12.70
2018-08-25T21:01:09.806Z,12.70
2018-08-25T21:03:38.353Z,12.60
2018-08-25T21:06:13.408Z,12.50
2018-08-25T21:08:41.901Z,12.50
2018-08-25T21:11:10.360Z,12.40
2018-08-25T21:13:38.917Z,12.30
2018-08-25T21:16:07.585Z,12.30
2018-08-25T21:18:36.093Z,12.20
2018-08-25T21:21:04.549Z,12.20
2018-08-25T21:23:33.142Z,12.10
2018-08-25T21:26:01.660Z,12.10
2018-08-25T21:28:30.129Z,12.00
2018-08-25T21:30:58.969Z,12.00
2018-08-25T21:33:27.597Z,11.90
2018-08-25T21:35:56.149Z,11.90
2018-08-25T21:38:24.577Z,11.80
2018-08-25T21:40:53.532Z,11.80
2018-08-25T21:43:22.477Z,11.80
2018-08-25T21:45:50.956Z,11.80
2018-08-25T21:48:19.552Z,11.70
2018-08-25T21:50:48.020Z,11.70
2018-08-25T21:53:16.435Z,11.60
2018-08-25T21:55:44.886Z,11.50
2018-08-25T21:58:13.479Z,11.50
2018-08-25T22:00:47.321Z,11.50
2018-08-25T22:03:15.809Z,11.40
2018-08-25T22:05:44.365Z,11.30
2018-08-25T22:08:12.796Z,11.30
2018-08-25T22:10:41.278Z,11.30
2018-08-25T22:13:09.704Z,11.30
2018-08-25T22:15:38.157Z,11.30
2018-08-25T22:18:06.655Z,11.30
2018-08-25T22:20:35.146Z,11.20
2018-08-25T22:23:03.701Z,11.20
2018-08-25T22:25:32.202Z,11.10
2018-08-25T22:28:00.659Z,11.10
2018-08-25T22:30:29.125Z,11.10
2018-08-25T22:32:57.851Z,11.00
2018-08-25T22:35:26.511Z,11.00
2018-08-25T22:37:55.003Z,11.00
2018-08-25T22:40:23.561Z,10.90
2018-08-25T22:42:52.460Z,10.90
2018-08-25T22:45:21.049Z,10.90
2018-08-25T22:47:49.509Z,10.80
2018-08-25T22:50:17.974Z,10.80
2018-08-25T22:52:53.136Z,10.80
2018-08-25T22:55:22.913Z,10.70
2018-08-25T22:57:51.744Z,10.70
2018-08-25T23:00:20.968Z,10.70
2018-08-25T23:02:49.369Z,10.70
2018-08-25T23:05:17.854Z,10.60
2018-08-25T23:07:46.238Z,10.60
2018-08-25T23:10:14.704Z,10.60
2018-08-25T23:12:43.232Z,10.60
2018-08-25T23:15:11.733Z,10.50
2018-08-25T23:17:40.212Z,10.50
2018-08-25T23:20:08.724Z,10.40
2018-08-25T23:22:37.187Z,10.40
2018-08-25T23:25:05.993Z,10.30
2018-08-25T23:27:34.496Z,10.30
2018-08-25T23:30:03.021Z,10.30
2018-08-25T23:32:31.587Z,10.20
2018-08-25T23:34:59.977Z,10.20
2018-08-25T23:37:28.442Z,10.20
2018-08-25T23:39:56.910Z,10.10
2018-08-25T23:42:25.450Z,10.10
2018-08-25T23:44:53.868Z,10.00
2018-08-25T23:47:22.312Z,10.00
2018-08-25T23:49:50.746Z,10.00
2018-08-25T23:52:19.251Z,9.90
2018-08-25T23:54:47.693Z,9.90
2018-08-25T23:57:16.163Z,9.80
2018-08-25T23:59:44.614Z,9.80
